Time;durP1;ratioP1;P1;durP2;ratioP2;P2;SDS_P1;SDS_P2;PMS_P1;PMS_P2;Temp;Humidity;BMP_temperature;BMP_pressure;BME280_temperature;BME280_humidity;BME280_pressure;Samples;Min_cycle;Max_cycle;Signal;HPM_P1;HPM_P2
2021/08/20 00:00:06;;;;;;;5.53;3.58;;;;;;;18.46;57.26;99800.84;1732294;82;21025;-75
2021/08/20 00:02:34;;;;;;;4.62;3.42;;;;;;;18.46;57.32;99802.17;1731859;82;20966;-75
2021/08/20 00:05:03;;;;;;;5.53;3.80;;;;;;;18.44;57.42;99802.05;1732346;82;21049;-75
2021/08/20 00:07:32;;;;;;;5.33;3.62;;;;;;;18.42;57.62;99811.56;1732421;82;20994;-75
2021/08/20 00:10:00;;;;;;;8.95;3.83;;;;;;;18.41;57.74;99809.91;1732305;82;21049;-75
2021/08/20 00:12:27;;;;;;;7.97;4.22;;;;;;;18.40;57.83;99800.23;1732444;82;20998;-75
2021/08/20 00:14:57;;;;;;;6.30;3.70;;;;;;;18.40;57.84;99800.23;1732273;82;21430;-75
2021/08/20 00:17:25;;;;;;;8.53;3.98;;;;;;;18.39;57.36;99798.58;1732394;82;20982;-75
2021/08/20 00:19:53;;;;;;;6.25;3.52;;;;;;;18.39;57.31;99790.56;1732598;82;20986;-74
2021/08/20 00:22:22;;;;;;;7.20;3.95;;;;;;;18.38;57.22;99790.75;1732368;82;21449;-75
2021/08/20 00:24:50;;;;;;;4.67;3.77;;;;;;;18.35;57.15;99790.63;1732634;82;21001;-75
2021/08/20 00:27:17;;;;;;;5.62;3.50;;;;;;;18.36;57.11;99800.81;1732745;82;21078;-75
2021/08/20 00:29:45;;;;;;;8.00;3.75;;;;;;;18.37;57.26;99801.95;1732829;82;20930;-75
2021/08/20 00:32:13;;;;;;;5.20;3.83;;;;;;;18.39;57.25;99802.59;1732563;82;22443;-75
2021/08/20 00:34:39;;;;;;;5.92;3.67;;;;;;;18.40;57.05;99806.92;1732941;82;21488;-75
2021/08/20 00:37:05;;;;;;;5.50;3.58;;;;;;;18.40;57.10;99812.78;1732972;82;20963;-74
2021/08/20 00:39:32;;;;;;;6.15;3.90;;;;;;;18.41;57.31;99817.11;1732845;82;21464;-75
2021/08/20 00:41:59;;;;;;;6.75;4.00;;;;;;;18.40;57.29;99814.94;1735720;82;21048;-75
2021/08/20 00:44:26;;;;;;;6.17;3.85;;;;;;;18.41;57.33;99813.09;1737263;82;21780;-74
2021/08/20 00:46:52;;;;;;;5.60;3.70;;;;;;;18.40;57.48;99808.77;1732667;82;21525;-75
2021/08/20 00:49:19;;;;;;;6.53;3.87;;;;;;;18.41;57.41;99807.75;1733121;82;21571;-75
2021/08/20 00:51:45;;;;;;;6.00;4.08;;;;;;;18.42;57.47;99812.08;1732959;82;20958;-74
2021/08/20 00:54:18;;;;;;;6.20;4.47;;;;;;;18.42;57.33;99818.77;1732778;82;21022;-75
2021/08/20 00:56:45;;;;;;;5.65;4.08;;;;;;;18.42;57.40;99820.09;1733258;82;22311;-75
2021/08/20 00:59:13;;;;;;;8.20;4.15;;;;;;;18.40;57.55;99828.31;1733086;82;20990;-75
2021/08/20 01:01:39;;;;;;;5.87;3.75;;;;;;;18.40;57.58;99831.49;1732401;82;21024;-75
2021/08/20 01:04:07;;;;;;;6.87;3.70;;;;;;;18.40;57.58;99832.33;1732774;82;21485;-75
2021/08/20 01:06:33;;;;;;;5.37;3.90;;;;;;;18.40;57.65;99835.00;1712118;82;20993;-74
2021/08/20 01:09:01;;;;;;;7.05;4.12;;;;;;;18.41;57.59;99837.16;1711968;82;22229;-75
2021/08/20 01:11:29;;;;;;;7.45;4.28;;;;;;;18.40;57.90;99839.01;1732641;82;21209;-75
2021/08/20 01:13:56;;;;;;;5.47;3.90;;;;;;;18.40;57.91;99831.49;1732823;82;21426;-75
2021/08/20 01:16:23;;;;;;;8.40;3.85;;;;;;;18.39;57.85;99834.67;1732854;82;21481;-75
2021/08/20 01:18:52;;;;;;;5.87;4.10;;;;;;;18.40;57.92;99834.17;1732462;82;20997;-75
2021/08/20 01:21:23;;;;;;;5.28;4.05;;;;;;;18.40;57.89;99831.49;1732799;82;21842;-75
2021/08/20 01:23:58;;;;;;;5.25;4.05;;;;;;;18.42;58.07;99838.30;1712366;82;21508;-75
2021/08/20 01:26:28;;;;;;;8.10;4.37;;;;;;;18.42;58.19;99833.47;1712002;82;20943;-74
2021/08/20 01:28:56;;;;;;;7.05;4.47;;;;;;;18.40;58.14;99834.17;1732987;82;20966;-74
2021/08/20 01:31:25;;;;;;;7.90;4.20;;;;;;;18.39;58.26;99833.84;1732914;82;20955;-74
2021/08/20 01:33:54;;;;;;;5.45;4.22;;;;;;;18.38;58.47;99840.22;1732713;82;21855;-75
2021/08/20 01:36:22;;;;;;;6.78;4.37;;;;;;;18.36;58.55;99840.41;1732411;82;20989;-75
2021/08/20 01:38:54;;;;;;;5.10;4.05;;;;;;;18.34;58.65;99838.43;1732609;82;21045;-75
2021/08/20 01:41:26;;;;;;;5.60;4.25;;;;;;;18.34;58.64;99837.60;1734366;82;20985;-74
2021/08/20 01:43:54;;;;;;;6.55;4.20;;;;;;;18.36;58.69;99828.88;1739165;82;21040;-74
2021/08/20 01:46:22;;;;;;;6.42;4.40;;;;;;;18.33;58.80;99825.22;1739024;82;21830;-75
2021/08/20 01:48:52;;;;;;;4.92;3.95;;;;;;;18.28;58.68;99827.13;1739001;82;21025;-75
2021/08/20 01:51:23;;;;;;;6.28;3.90;;;;;;;18.25;58.64;99817.64;1718344;82;21586;-75
2021/08/20 01:53:55;;;;;;;5.30;4.15;;;;;;;18.25;58.55;99825.66;1738767;80;20996;-75
2021/08/20 01:56:25;;;;;;;8.48;4.17;;;;;;;18.23;58.46;99812.96;1739363;81;20905;-74
2021/08/20 01:58:56;;;;;;;7.50;4.10;;;;;;;18.23;58.09;99810.28;1739140;81;20925;-75
2021/08/20 02:01:25;;;;;;;7.30;3.98;;;;;;;18.25;58.09;99809.63;1739126;82;20933;-75
2021/08/20 02:03:53;;;;;;;6.05;4.17;;;;;;;18.26;58.04;99814.45;1743115;81;21005;-75
2021/08/20 02:06:22;;;;;;;5.70;4.20;;;;;;;18.25;57.89;99812.30;1739119;82;21433;-75
2021/08/20 02:08:50;;;;;;;5.90;4.30;;;;;;;18.23;58.10;99815.63;1738689;82;21540;-75
2021/08/20 02:11:17;;;;;;;7.05;4.25;;;;;;;18.19;57.95;99819.70;1739194;82;21839;-75
2021/08/20 02:13:46;;;;;;;6.00;4.10;;;;;;;18.18;58.02;99814.55;1738756;82;20995;-74
2021/08/20 02:16:14;;;;;;;6.92;4.55;;;;;;;18.15;58.14;99817.59;1739078;82;20916;-74
2021/08/20 02:18:41;;;;;;;6.40;4.50;;;;;;;18.13;58.06;99812.41;1718301;82;21002;-74
2021/08/20 02:21:10;;;;;;;6.22;4.35;;;;;;;18.10;58.08;99815.97;1739109;82;21019;-74
2021/08/20 02:23:39;;;;;;;7.17;4.33;;;;;;;18.08;58.19;99816.16;1739076;81;22243;-74
2021/08/20 02:26:09;;;;;;;5.55;4.20;;;;;;;18.07;58.24;99818.52;1737151;82;20935;-75
2021/08/20 02:28:35;;;;;;;5.72;3.87;;;;;;;18.04;58.34;99808.16;1731978;82;20971;-74
2021/08/20 02:31:02;;;;;;;7.28;4.58;;;;;;;18.01;58.63;99814.72;1732213;82;21011;-74
2021/08/20 02:33:33;;;;;;;7.28;4.45;;;;;;;17.95;58.60;99813.27;1732042;82;21066;-74
2021/08/20 02:36:04;;;;;;;6.70;4.53;;;;;;;17.90;58.83;99805.82;1729664;82;21871;-74
2021/08/20 02:38:29;;;;;;;8.18;4.70;;;;;;;17.88;58.82;99805.19;1729174;82;20954;-75
2021/08/20 02:40:57;;;;;;;8.13;4.75;;;;;;;17.88;58.94;99804.35;1709072;82;20963;-74
2021/08/20 02:43:24;;;;;;;5.67;4.70;;;;;;;17.88;59.01;99803.84;1735547;82;20971;-74
2021/08/20 02:45:53;;;;;;;7.92;4.95;;;;;;;17.85;59.16;99805.52;1729372;82;21485;-74
2021/08/20 02:48:22;;;;;;;6.08;4.58;;;;;;;17.83;59.26;99809.40;1729632;82;21806;-74
2021/08/20 02:50:51;;;;;;;6.90;4.67;;;;;;;17.82;59.42;99810.41;1729225;82;20993;-75
2021/08/20 02:53:18;;;;;;;10.43;4.78;;;;;;;17.80;59.50;99807.93;1729640;82;21045;-74
2021/08/20 02:55:44;;;;;;;9.18;4.67;;;;;;;17.79;59.32;99805.45;1729421;83;20946;-74
2021/08/20 02:58:11;;;;;;;5.72;4.25;;;;;;;17.80;59.49;99815.12;1729112;82;20995;-74
2021/08/20 03:00:40;;;;;;;7.58;5.10;;;;;;;17.80;59.52;99815.94;1731425;82;22689;-74
2021/08/20 03:03:08;;;;;;;7.15;5.10;;;;;;;17.81;59.31;99823.45;1739077;82;20959;-74
2021/08/20 03:05:34;;;;;;;8.08;5.35;;;;;;;17.81;59.52;99823.45;1739001;82;20994;-75
2021/08/20 03:08:03;;;;;;;7.50;5.03;;;;;;;17.80;59.71;99823.95;1738857;82;21059;-74
2021/08/20 03:10:33;;;;;;;7.87;5.20;;;;;;;17.79;59.84;99818.30;1739509;82;21006;-75
2021/08/20 03:13:00;;;;;;;8.38;5.35;;;;;;;17.79;60.11;99816.13;1718380;82;22207;-74
2021/08/20 03:15:27;;;;;;;8.58;5.45;;;;;;;17.77;60.21;99824.33;1739029;82;20978;-74
2021/08/20 03:17:55;;;;;;;7.25;5.30;;;;;;;17.76;60.28;99823.16;1733472;82;20948;-74
2021/08/20 03:20:23;;;;;;;10.25;5.33;;;;;;;17.76;60.45;99821.81;1729438;82;21000;-74
2021/08/20 03:22:50;;;;;;;7.78;5.30;;;;;;;17.71;60.61;99825.87;1729370;83;21043;-74
2021/08/20 03:25:19;;;;;;;7.42;5.40;;;;;;;17.69;60.79;99828.38;1729433;83;22615;-75
2021/08/20 03:27:46;;;;;;;6.55;5.42;;;;;;;17.65;60.85;99821.21;1729234;82;20979;-74
2021/08/20 03:30:14;;;;;;;9.78;6.40;;;;;;;17.63;60.86;99821.08;1725950;83;21395;-74
2021/08/20 03:32:47;;;;;;;8.27;5.50;;;;;;;17.60;60.80;99816.94;1728560;82;20951;-74
2021/08/20 03:35:14;;;;;;;7.78;5.53;;;;;;;17.60;60.60;99814.77;1733007;82;20955;-74
2021/08/20 03:37:42;;;;;;;8.80;5.42;;;;;;;17.59;60.67;99815.78;1729409;83;21808;-74
2021/08/20 03:40:12;;;;;;;7.70;5.20;;;;;;;17.59;60.73;99823.29;1729341;83;20983;-74
2021/08/20 03:42:40;;;;;;;8.05;5.40;;;;;;;17.58;60.64;99817.63;1708783;82;21014;-74
2021/08/20 03:45:11;;;;;;;8.15;5.65;;;;;;;17.59;60.65;99818.45;1702303;84;21018;-74
2021/08/20 03:47:40;;;;;;;7.78;5.87;;;;;;;17.59;60.67;99816.61;1704899;83;21454;-74
2021/08/20 03:50:09;;;;;;;8.23;5.35;;;;;;;17.57;60.64;99826.65;1704870;84;21731;-74
2021/08/20 03:52:38;;;;;;;8.53;5.75;;;;;;;17.58;60.57;99821.63;1700750;82;20988;-74
2021/08/20 03:55:07;;;;;;;9.90;5.90;;;;;;;17.60;60.66;99828.95;1698967;83;21003;-74
2021/08/20 03:57:36;;;;;;;7.92;5.20;;;;;;;17.61;60.60;99821.77;1699281;83;20968;-75
2021/08/20 04:00:06;;;;;;;8.28;5.60;;;;;;;17.64;60.67;99826.73;1698946;84;21007;-74
2021/08/20 04:02:36;;;;;;;;;;;;;;;17.64;60.66;99820.89;1700999;84;20934;-74
2021/08/20 04:05:04;;;;;;;6.42;5.40;;;;;;;17.66;60.76;99825.57;1698985;84;20528;-74
2021/08/20 04:07:35;;;;;;;8.83;5.55;;;;;;;17.67;60.79;99821.06;1672650;82;20972;-75
2021/08/20 04:10:07;;;;;;;8.63;5.60;;;;;;;17.68;60.79;99820.88;1676593;84;20955;-75
2021/08/20 04:12:52;;;;;;;11.00;5.90;;;;;;;17.68;60.72;99818.20;1676508;85;21033;-75
2021/08/20 04:15:22;;;;;;;9.08;5.62;;;;;;;17.69;60.72;99817.69;1675517;85;21006;-74
2021/08/20 04:17:49;;;;;;;7.78;5.50;;;;;;;17.72;60.80;99812.02;1657467;85;21410;-74
2021/08/20 04:20:16;;;;;;;9.35;5.97;;;;;;;17.76;60.88;99811.13;1676340;85;21010;-74
2021/08/20 04:22:44;;;;;;;7.72;5.08;;;;;;;17.78;60.83;99816.64;1676547;85;21415;-75
2021/08/20 04:25:12;;;;;;;9.18;6.08;;;;;;;17.82;60.78;99815.76;1683588;82;21031;-74
2021/08/20 04:27:53;;;;;;;8.25;5.30;;;;;;;17.83;60.77;99817.41;1697765;84;21830;-74
2021/08/20 04:30:34;;;;;;;8.93;5.87;;;;;;;17.83;60.76;99818.75;1609983;84;21011;-74
2021/08/20 04:33:08;;;;;;;7.83;5.87;;;;;;;17.82;60.86;99811.24;1678733;84;21426;-74
2021/08/20 04:35:46;;;;;;;10.65;5.60;;;;;;;17.84;60.80;99817.73;1712948;82;21650;-74
2021/08/20 04:38:17;;;;;;;11.00;6.00;;;;;;;17.84;60.84;99809.72;1737369;82;20938;-74
2021/08/20 04:41:01;;;;;;;8.03;5.45;;;;;;;17.85;60.84;99816.21;1736481;82;21858;-74
2021/08/20 04:43:38;;;;;;;7.65;5.60;;;;;;;17.87;60.89;99815.55;1738350;82;20954;-74
2021/08/20 04:46:16;;;;;;;9.00;6.30;;;;;;;17.90;60.94;99815.68;1719549;82;21409;-74
2021/08/20 04:49:02;;;;;;;7.72;5.80;;;;;;;17.94;60.88;99811.11;1722267;82;21484;-74
2021/08/20 04:51:43;;;;;;;8.83;5.85;;;;;;;17.98;60.76;99811.09;1736107;82;20879;-74
2021/08/20 04:54:25;;;;;;;8.68;5.40;;;;;;;18.01;60.80;99811.22;1721230;82;22285;-74
2021/08/20 04:56:58;;;;;;;8.00;5.65;;;;;;;18.02;60.77;99811.03;1737975;82;20994;-74
2021/08/20 04:59:25;;;;;;;8.18;5.58;;;;;;;18.03;60.63;99811.34;1738016;82;20961;-74
2021/08/20 05:01:51;;;;;;;9.63;6.33;;;;;;;18.02;60.78;99805.69;1737998;82;20993;-74
2021/08/20 05:04:18;;;;;;;9.15;6.35;;;;;;;18.05;60.72;99813.00;1738195;82;20941;-75
2021/08/20 05:06:44;;;;;;;8.58;6.08;;;;;;;18.06;60.65;99810.68;1737940;82;22194;-75
2021/08/20 05:09:12;;;;;;;10.23;5.67;;;;;;;18.07;60.65;99806.99;1738110;82;21453;-74
2021/08/20 05:11:40;;;;;;;11.60;6.35;;;;;;;18.08;60.64;99812.15;1738037;82;21471;-75
2021/08/20 05:14:07;;;;;;;9.30;6.05;;;;;;;18.10;60.70;99814.12;1738078;82;21058;-74
2021/08/20 05:16:35;;;;;;;7.15;5.62;;;;;;;18.14;60.64;99813.23;1737712;82;20978;-74
2021/08/20 05:19:03;;;;;;;6.97;5.25;;;;;;;18.16;60.72;99813.91;1738136;82;20997;-75
2021/08/20 05:21:30;;;;;;;7.28;5.97;;;;;;;18.19;60.70;99814.36;1738105;82;21032;-74
2021/08/20 05:23:58;;;;;;;9.30;5.90;;;;;;;18.23;60.71;99804.94;1719086;82;21381;-74
2021/08/20 05:26:25;;;;;;;8.03;5.72;;;;;;;18.27;60.65;99809.43;1737938;82;21448;-74
2021/08/20 05:28:52;;;;;;;9.80;5.45;;;;;;;18.32;60.44;99807.02;1738331;82;21010;-74
2021/08/20 05:31:19;;;;;;;7.28;5.28;;;;;;;18.36;60.29;99815.52;1738029;82;21835;-74
2021/08/20 05:33:46;;;;;;;9.20;5.50;;;;;;;18.42;60.29;99819.59;1737902;82;21032;-74
2021/08/20 05:36:12;;;;;;;7.58;5.45;;;;;;;18.47;60.16;99819.05;1735408;82;21029;-74
2021/08/20 05:38:39;;;;;;;6.95;5.35;;;;;;;18.49;60.11;99819.17;1732659;82;21064;-74
2021/08/20 05:41:05;;;;;;;9.15;5.55;;;;;;;18.52;59.96;99813.44;1733545;82;21001;-74
2021/08/20 05:43:32;;;;;;;8.23;6.00;;;;;;;18.54;59.81;99818.63;1736435;82;21814;-74
2021/08/20 05:45:59;;;;;;;8.23;6.15;;;;;;;18.57;60.02;99821.75;1738980;82;21440;-75
2021/08/20 05:48:25;;;;;;;8.48;5.85;;;;;;;18.62;60.20;99825.19;1739739;82;21000;-74
2021/08/20 05:50:52;;;;;;;7.40;5.87;;;;;;;18.68;59.83;99821.80;1735141;82;20983;-74
2021/08/20 05:53:19;;;;;;;9.68;5.53;;;;;;;18.73;59.70;99825.27;1732762;82;20954;-74
2021/08/20 05:55:45;;;;;;;9.75;5.85;;;;;;;18.80;59.76;99832.34;1732668;82;21782;-74
2021/08/20 05:58:12;;;;;;;8.10;5.55;;;;;;;18.90;59.54;99829.36;1732620;82;21001;-74
2021/08/20 06:00:38;;;;;;;8.20;5.42;;;;;;;19.02;59.59;99833.22;1732519;82;20934;-74
2021/08/20 06:03:06;;;;;;;7.50;6.00;;;;;;;19.14;59.52;99828.19;1732859;82;20998;-74
2021/08/20 06:05:33;;;;;;;9.08;5.55;;;;;;;19.28;59.05;99825.95;1732446;82;21443;-74
2021/08/20 06:08:01;;;;;;;9.23;6.08;;;;;;;19.40;58.69;99831.64;1732730;82;21781;-74
2021/08/20 06:10:27;;;;;;;7.33;5.65;;;;;;;19.51;58.44;99834.31;1732462;82;20991;-74
2021/08/20 06:12:55;;;;;;;7.55;5.90;;;;;;;19.57;58.33;99834.89;1732757;82;21480;-74
2021/08/20 06:15:22;;;;;;;7.22;5.90;;;;;;;19.60;57.66;99839.38;1732715;82;21629;-74
2021/08/20 06:17:48;;;;;;;7.80;5.75;;;;;;;19.65;57.63;99840.12;1732615;82;20943;-74
2021/08/20 06:20:17;;;;;;;13.80;6.08;;;;;;;19.69;57.58;99845.42;1732758;82;21418;-74
2021/08/20 06:22:45;;;;;;;7.95;5.75;;;;;;;19.72;57.76;99841.84;1732553;82;20928;-74
2021/08/20 06:25:11;;;;;;;9.15;5.67;;;;;;;19.79;57.79;99837.05;1732218;82;21045;-74
2021/08/20 06:27:38;;;;;;;8.60;6.35;;;;;;;19.89;57.99;99843.72;1732314;82;20954;-75
2021/08/20 06:30:05;;;;;;;9.65;5.78;;;;;;;20.07;57.54;99842.38;1732748;82;20941;-74
2021/08/20 06:32:32;;;;;;;8.33;5.65;;;;;;;20.18;57.11;99848.05;1732590;82;22524;-74
2021/08/20 06:34:58;;;;;;;7.55;5.60;;;;;;;20.29;56.84;99841.30;1732718;82;20977;-74
2021/08/20 06:37:25;;;;;;;8.55;5.78;;;;;;;20.40;56.62;99830.01;1732473;82;20989;-74
2021/08/20 06:39:52;;;;;;;9.25;5.75;;;;;;;20.52;56.04;99830.30;1732545;82;20978;-74
2021/08/20 06:42:18;;;;;;;8.70;5.75;;;;;;;20.63;55.88;99832.41;1732790;82;20958;-75
2021/08/20 06:44:45;;;;;;;8.30;6.12;;;;;;;20.72;55.35;99830.38;1732680;82;22197;-74
2021/08/20 06:47:13;;;;;;;7.30;5.58;;;;;;;20.79;55.25;99827.21;1732472;82;21002;-74
2021/08/20 06:49:39;;;;;;;8.23;5.95;;;;;;;20.88;55.42;99827.86;1732580;82;21333;-75
2021/08/20 06:52:11;;;;;;;9.23;5.47;;;;;;;20.94;55.06;99822.52;1732490;82;21606;-74
2021/08/20 06:54:37;;;;;;;7.87;5.53;;;;;;;21.01;54.48;99835.42;1712073;82;21373;-75
2021/08/20 06:57:05;;;;;;;6.58;5.25;;;;;;;21.06;54.21;99823.58;1732474;82;21777;-74
2021/08/20 06:59:31;;;;;;;7.70;5.97;;;;;;;21.20;54.52;99823.59;1732359;82;21487;-74
2021/08/20 07:01:58;;;;;;;8.75;6.12;;;;;;;21.22;53.64;99823.69;1732641;82;20946;-75
2021/08/20 07:04:24;;;;;;;14.47;5.90;;;;;;;21.25;53.53;99821.14;1732492;82;21053;-74
2021/08/20 07:06:54;;;;;;;8.55;5.53;;;;;;;21.34;54.03;99817.26;1732505;82;20997;-74
2021/08/20 07:09:23;;;;;;;9.08;6.10;;;;;;;21.43;52.70;99820.05;1732746;82;22525;-75
2021/08/20 07:11:51;;;;;;;11.35;5.90;;;;;;;21.42;52.46;99825.09;1732519;82;20950;-74
2021/08/20 07:14:18;;;;;;;8.23;6.17;;;;;;;21.41;52.65;99814.86;1732469;82;20989;-74
2021/08/20 07:16:46;;;;;;;7.85;5.80;;;;;;;21.43;52.35;99816.85;1732397;82;20958;-74
2021/08/20 07:19:12;;;;;;;7.87;5.90;;;;;;;21.50;52.71;99814.14;1732925;82;21516;-73
2021/08/20 07:21:39;;;;;;;9.75;6.00;;;;;;;21.58;52.24;99810.43;1732367;82;22200;-73
2021/08/20 07:24:05;;;;;;;7.15;5.70;;;;;;;21.67;52.41;99807.33;1732658;82;21041;-74
2021/08/20 07:26:32;;;;;;;11.95;5.75;;;;;;;21.78;51.98;99814.45;1732532;82;20990;-73
2021/08/20 07:28:59;;;;;;;8.90;5.53;;;;;;;21.82;52.11;99808.98;1732477;82;21009;-74
2021/08/20 07:31:25;;;;;;;9.90;6.17;;;;;;;21.90;51.98;99807.40;1732682;82;20953;-74
2021/08/20 07:33:53;;;;;;;8.13;5.70;;;;;;;21.91;51.92;99803.70;1732416;82;21835;-75
2021/08/20 07:36:20;;;;;;;9.73;5.60;;;;;;;21.95;51.99;99800.89;1711906;82;21302;-74
2021/08/20 07:38:48;;;;;;;6.75;4.97;;;;;;;21.99;51.85;99802.11;1732983;82;20997;-74
2021/08/20 07:41:14;;;;;;;6.87;5.42;;;;;;;22.03;51.75;99806.05;1734348;82;20974;-74
2021/08/20 07:43:40;;;;;;;8.65;5.12;;;;;;;22.04;51.23;99806.36;1739367;82;21040;-74
2021/08/20 07:46:07;;;;;;;7.05;5.47;;;;;;;22.00;51.71;99805.11;1739301;82;22202;-74
2021/08/20 07:48:34;;;;;;;8.13;5.25;;;;;;;22.02;50.58;99805.75;1739085;82;20976;-74
2021/08/20 07:51:02;;;;;;;7.30;5.20;;;;;;;21.98;50.77;99808.02;1738420;82;20986;-74
2021/08/20 07:53:28;;;;;;;7.65;5.40;;;;;;;21.98;50.69;99809.36;1739197;82;21470;-74
2021/08/20 07:55:56;;;;;;;7.45;5.12;;;;;;;21.94;51.05;99805.97;1739513;82;21454;-74
2021/08/20 07:58:23;;;;;;;8.03;5.15;;;;;;;21.97;50.99;99806.36;1739268;82;21850;-74
2021/08/20 08:00:49;;;;;;;9.25;5.40;;;;;;;22.03;51.01;99806.05;1739415;82;20959;-74
2021/08/20 08:03:15;;;;;;;6.47;5.10;;;;;;;22.04;50.74;99806.36;1739195;82;20987;-74
2021/08/20 08:05:42;;;;;;;10.78;5.30;;;;;;;22.01;50.20;99810.83;1738382;82;20999;-74
2021/08/20 08:08:09;;;;;;;7.15;5.25;;;;;;;21.93;50.37;99813.73;1732170;82;20955;-74
2021/08/20 08:10:35;;;;;;;8.18;5.12;;;;;;;21.83;50.40;99814.67;1732149;82;21835;-74
2021/08/20 08:13:03;;;;;;;8.08;5.50;;;;;;;21.76;50.93;99813.84;1732035;82;21046;-74
2021/08/20 08:15:30;;;;;;;9.25;5.55;;;;;;;21.73;51.02;99808.89;1732111;82;21078;-73
2021/08/20 08:17:57;;;;;;;10.10;5.03;;;;;;;21.68;51.32;99810.33;1732044;82;21491;-74
2021/08/20 08:20:24;;;;;;;8.73;5.30;;;;;;;21.73;51.56;99817.78;1732073;82;21014;-74
2021/08/20 08:22:51;;;;;;;9.90;5.35;;;;;;;21.74;50.84;99810.54;1731959;82;21805;-74
2021/08/20 08:25:19;;;;;;;5.85;4.40;;;;;;;21.75;50.77;99813.02;1713448;82;20948;-74
2021/08/20 08:27:56;;;;;;;9.03;5.10;;;;;;;21.77;50.47;99806.09;1713245;82;21435;-74
2021/08/20 08:30:28;;;;;;;7.95;5.15;;;;;;;21.83;50.23;99805.27;1732360;82;21004;-74
2021/08/20 08:32:57;;;;;;;7.20;4.50;;;;;;;21.87;50.21;99807.31;1732336;82;21187;-75
2021/08/20 08:35:23;;;;;;;8.78;4.70;;;;;;;21.98;50.10;99804.50;1732350;82;21774;-74
2021/08/20 08:37:50;;;;;;;5.87;4.60;;;;;;;22.07;50.24;99801.92;1731945;82;20952;-74
2021/08/20 08:40:16;;;;;;;7.47;4.70;;;;;;;22.18;49.95;99799.93;1731898;82;20995;-74
2021/08/20 08:42:42;;;;;;;5.50;4.35;;;;;;;22.25;49.33;99799.40;1723995;82;21002;-74
2021/08/20 08:45:09;;;;;;;7.30;4.72;;;;;;;22.28;49.47;99811.08;1718457;82;20957;-74
2021/08/20 08:47:36;;;;;;;5.78;4.58;;;;;;;22.34;49.01;99804.55;1739181;81;21887;-75
2021/08/20 08:50:05;;;;;;;6.15;4.70;;;;;;;22.35;48.98;99803.51;1739156;82;21005;-75
2021/08/20 08:52:32;;;;;;;6.92;4.67;;;;;;;22.37;48.92;99795.52;1739478;82;20993;-75
2021/08/20 08:55:05;;;;;;;9.50;4.58;;;;;;;22.45;48.89;99790.43;1739132;80;21499;-75
2021/08/20 08:57:33;;;;;;;7.25;4.45;;;;;;;22.56;48.81;99793.80;1736000;82;21008;-75
2021/08/20 08:59:59;;;;;;;6.80;4.28;;;;;;;22.70;49.39;99800.79;1712054;82;22821;-75
2021/08/20 09:02:26;;;;;;;5.03;3.75;;;;;;;22.91;48.40;99788.08;1732787;82;21090;-74
2021/08/20 09:05:10;;;;;;;5.55;4.30;;;;;;;23.02;46.95;99796.28;1732907;82;21014;-74
2021/08/20 09:07:38;;;;;;;8.03;4.00;;;;;;;23.10;47.84;99791.16;1704815;82;21011;-74
2021/08/20 09:10:23;;;;;;;7.25;4.30;;;;;;;23.27;48.10;99790.95;1732655;82;20950;-75
2021/08/20 09:12:53;;;;;;;9.40;4.05;;;;;;;23.47;48.40;99791.31;1732672;82;22167;-75
2021/08/20 09:15:24;;;;;;;5.80;3.45;;;;;;;23.75;47.47;99787.67;1711401;82;21093;-75
2021/08/20 09:17:55;;;;;;;4.55;3.83;;;;;;;23.91;45.62;99788.95;1733249;82;21033;-74
2021/08/20 09:20:29;;;;;;;5.25;4.17;;;;;;;23.80;45.11;99789.69;1732002;82;21037;-74
2021/08/20 09:22:59;;;;;;;6.28;4.12;;;;;;;23.77;45.84;99793.66;1732811;82;21088;-74
2021/08/20 09:25:37;;;;;;;7.97;3.80;;;;;;;23.82;45.79;99788.94;1733025;82;21802;-74
2021/08/20 09:28:28;;;;;;;6.33;4.12;;;;;;;23.92;46.65;99786.03;1732575;82;21005;-74
2021/08/20 09:31:02;;;;;;;6.65;4.03;;;;;;;24.10;45.68;99778.48;1732691;82;21024;-75
2021/08/20 09:33:48;;;;;;;8.88;4.10;;;;;;;24.16;44.67;99787.56;1732512;82;21014;-74
2021/08/20 09:36:20;;;;;;;6.92;4.10;;;;;;;24.15;45.25;99788.62;1732671;82;20986;-74
2021/08/20 09:38:54;;;;;;;5.50;3.70;;;;;;;24.25;45.23;99788.39;1732393;82;21824;-74
2021/08/20 09:41:30;;;;;;;5.08;3.60;;;;;;;24.39;45.37;99791.78;1737192;82;21492;-75
2021/08/20 09:44:00;;;;;;;4.85;4.03;;;;;;;24.62;44.98;99788.92;1738316;82;20965;-75
2021/08/20 09:46:26;;;;;;;4.85;3.80;;;;;;;24.77;44.39;99783.92;1739105;82;20963;-75
2021/08/20 09:48:54;;;;;;;5.62;3.67;;;;;;;24.82;43.97;99782.73;1686257;82;21014;-74
2021/08/20 09:51:46;;;;;;;5.78;3.62;;;;;;;24.84;43.82;99780.61;1739107;82;21838;-75
2021/08/20 09:54:26;;;;;;;7.83;3.80;;;;;;;24.84;44.74;99784.14;1739012;80;21073;-75
2021/08/20 09:56:51;;;;;;;4.75;3.22;;;;;;;24.96;43.88;99784.70;1737015;82;21089;-75
2021/08/20 09:59:17;;;;;;;9.23;3.90;;;;;;;24.99;43.08;99781.00;1739079;81;20954;-75
2021/08/20 10:01:46;;;;;;;6.70;4.20;;;;;;;24.93;42.93;99787.87;1739162;82;21054;-74
2021/08/20 10:04:14;;;;;;;5.72;3.85;;;;;;;24.86;43.30;99778.50;1739334;82;22655;-74
2021/08/20 10:06:45;;;;;;;5.00;3.42;;;;;;;24.83;42.67;99777.09;1732621;82;21635;-74
2021/08/20 10:09:16;;;;;;;4.37;3.60;;;;;;;24.78;43.08;99770.19;1732333;82;21018;-74
2021/08/20 10:11:52;;;;;;;5.50;3.67;;;;;;;24.80;43.75;99772.16;1732004;82;21640;-75
2021/08/20 10:14:27;;;;;;;5.35;3.90;;;;;;;24.86;43.75;99768.23;1713789;82;20959;-75
2021/08/20 10:16:53;;;;;;;8.65;3.52;;;;;;;24.91;42.94;99765.67;1732076;82;21831;-74
2021/08/20 10:19:19;;;;;;;4.95;3.58;;;;;;;24.94;44.24;99761.15;1732247;82;20944;-74
2021/08/20 10:21:46;;;;;;;4.90;3.58;;;;;;;25.06;43.46;99766.91;1731835;82;20963;-74
2021/08/20 10:24:14;;;;;;;8.55;3.85;;;;;;;25.20;43.11;99757.27;1732273;82;21006;-73
2021/08/20 10:26:54;;;;;;;5.58;3.42;;;;;;;25.21;43.21;99762.43;1732076;82;21516;-74
2021/08/20 10:29:23;;;;;;;5.83;3.42;;;;;;;25.32;43.70;99755.39;1731948;82;21754;-74
2021/08/20 10:31:50;;;;;;;6.40;3.15;;;;;;;25.51;43.24;99754.77;1731964;82;21016;-75
2021/08/20 10:34:37;;;;;;;5.03;3.20;;;;;;;25.69;43.73;99752.77;1732059;82;20960;-74
2021/08/20 10:37:18;;;;;;;5.70;3.25;;;;;;;25.89;41.80;99741.62;1731965;82;20956;-75
2021/08/20 10:39:47;;;;;;;5.72;3.25;;;;;;;25.96;42.42;99738.77;1732336;82;20997;-75
2021/08/20 10:42:23;;;;;;;5.55;3.33;;;;;;;26.06;41.10;99736.84;1732859;82;21425;-74
2021/08/20 10:44:51;;;;;;;6.75;3.62;;;;;;;26.05;42.33;99739.22;1732653;82;21007;-75
2021/08/20 10:47:24;;;;;;;3.85;3.12;;;;;;;26.08;42.13;99732.82;1732770;82;21001;-75
2021/08/20 10:50:06;;;;;;;7.95;3.20;;;;;;;25.95;42.04;99731.70;1732575;82;21291;-74
2021/08/20 10:52:37;;;;;;;6.03;3.30;;;;;;;25.86;42.08;99741.25;1714316;82;21123;-75
2021/08/20 10:55:08;;;;;;;8.40;3.10;;;;;;;25.86;42.75;99742.60;1732057;82;21762;-75
2021/08/20 10:57:42;;;;;;;;;;;;;;;26.08;43.51;99734.17;1739841;82;21366;-75
2021/08/20 11:00:23;;;;;;;6.85;3.00;;;;;;;26.42;43.03;99737.86;1739125;82;20146;-74
2021/08/20 11:02:54;;;;;;;4.37;2.80;;;;;;;26.69;40.89;99735.94;1739156;82;21099;-75
2021/08/20 11:05:47;;;;;;;5.95;3.00;;;;;;;26.67;39.30;99738.89;1739068;82;21092;-74
2021/08/20 11:08:33;;;;;;;6.25;2.58;;;;;;;26.65;39.11;99738.32;1739098;82;22226;-74
2021/08/20 11:11:01;;;;;;;5.28;2.52;;;;;;;26.71;38.38;99744.11;1738979;82;21500;-75
2021/08/20 11:13:30;;;;;;;9.75;2.80;;;;;;;26.77;37.98;99737.73;1736297;81;20974;-75
2021/08/20 11:15:56;;;;;;;5.53;2.60;;;;;;;26.85;37.97;99747.89;1732260;82;21439;-75
2021/08/20 11:18:47;;;;;;;4.75;2.55;;;;;;;26.82;37.81;99748.64;1732164;82;21489;-75
2021/08/20 11:21:44;;;;;;;3.83;2.37;;;;;;;26.77;38.02;99742.32;1624191;85;21606;-75
2021/08/20 11:24:17;;;;;;;4.30;2.60;;;;;;;26.69;37.76;99746.23;1724356;82;21065;-75
2021/08/20 11:26:44;;;;;;;3.12;2.40;;;;;;;26.55;38.41;99741.37;1731352;82;21000;-75
2021/08/20 11:29:13;;;;;;;4.20;2.50;;;;;;;26.44;38.51;99733.55;1731927;82;21537;-75
2021/08/20 11:31:42;;;;;;;4.87;2.45;;;;;;;26.40;39.29;99730.52;1717467;82;21057;-75
2021/08/20 11:34:08;;;;;;;5.28;2.50;;;;;;;26.48;38.98;99742.86;1739119;82;22559;-74
2021/08/20 11:36:39;;;;;;;4.35;2.55;;;;;;;26.57;38.00;99727.87;1739244;82;21428;-75
2021/08/20 11:39:04;;;;;;;4.65;2.42;;;;;;;26.59;37.55;99729.80;1738776;82;21495;-75
2021/08/20 11:41:37;;;;;;;4.72;2.50;;;;;;;26.54;37.27;99732.42;1739018;81;21485;-74
2021/08/20 11:44:06;;;;;;;5.65;2.30;;;;;;;26.43;37.74;99738.68;1729062;82;21048;-75